createdAt,value
2022-11-25T00:00:16.084Z,8.23
2022-11-25T00:01:24.964Z,8.15
2022-11-25T00:02:28.787Z,7.91
2022-11-25T00:03:32.634Z,7.91
2022-11-25T00:04:36.865Z,8.06
2022-11-25T00:05:40.603Z,7.64
2022-11-25T00:06:44.105Z,8.33
2022-11-25T00:07:47.664Z,7.67
2022-11-25T00:08:53.921Z,7.27
2022-11-25T00:09:57.434Z,7.74
2022-11-25T00:11:01.743Z,7.64
2022-11-25T00:12:05.474Z,7.99
2022-11-25T00:13:08.938Z,8.06
2022-11-25T00:14:14.999Z,8.17
2022-11-25T00:15:18.580Z,7.88
2022-11-25T00:16:23.780Z,7.79
2022-11-25T00:17:27.392Z,7.67
2022-11-25T00:18:31.484Z,7.99
2022-11-25T00:19:34.988Z,7.76
2022-11-25T00:20:38.466Z,7.89
2022-11-25T00:21:42.282Z,7.53
2022-11-25T00:22:45.743Z,7.26
2022-11-25T00:25:06.701Z,7.73
2022-11-25T00:26:12.590Z,7.55
2022-11-25T00:27:16.183Z,8.52
2022-11-25T00:28:19.672Z,7.69
2022-11-25T00:29:25.002Z,7.58
2022-11-25T00:30:28.490Z,8.78
2022-11-25T00:31:34.896Z,8.04
2022-11-25T00:32:38.524Z,7.54
2022-11-25T00:33:42.312Z,7.65
2022-11-25T00:34:45.774Z,7.64
2022-11-25T00:35:49.302Z,8.04
2022-11-25T00:36:56.064Z,8.18
2022-11-25T00:37:59.548Z,7.65
2022-11-25T00:39:08.999Z,7.29
2022-11-25T00:40:13.140Z,8.13
2022-11-25T00:41:27.425Z,8.68
2022-11-25T00:42:48.942Z,8.24
2022-11-25T00:44:10.518Z,7.72
2022-11-25T00:45:14.041Z,7.52
2022-11-25T00:46:17.656Z,8.89
2022-11-25T00:47:22.461Z,7.59
2022-11-25T00:48:25.937Z,8.00
2022-11-25T00:49:29.599Z,8.16
2022-11-25T00:50:33.108Z,8.39
2022-11-25T00:51:36.582Z,7.84
2022-11-25T00:52:40.305Z,8.22
2022-11-25T00:53:43.800Z,7.40
2022-11-25T00:54:48.068Z,7.53
2022-11-25T00:56:09.915Z,7.59
2022-11-25T00:57:14.773Z,7.77
2022-11-25T00:58:18.334Z,7.66
2022-11-25T00:59:21.855Z,8.31
2022-11-25T01:00:25.411Z,8.42
2022-11-25T01:01:28.978Z,7.96
2022-11-25T01:02:32.548Z,8.84
2022-11-25T01:03:39.032Z,7.61
2022-11-25T01:04:42.717Z,8.08
2022-11-25T01:05:46.237Z,8.14
2022-11-25T01:06:50.411Z,7.74
2022-11-25T01:07:53.973Z,7.83
2022-11-25T01:08:57.673Z,8.21
2022-11-25T01:10:01.426Z,8.41
2022-11-25T01:11:08.178Z,8.12
2022-11-25T01:12:11.792Z,7.98
2022-11-25T01:13:15.294Z,8.48
2022-11-25T01:14:20.511Z,8.37
2022-11-25T01:15:23.979Z,8.33
2022-11-25T01:16:27.562Z,8.44
2022-11-25T01:17:32.107Z,8.52
2022-11-25T01:18:35.795Z,8.84
2022-11-25T01:19:40.021Z,7.98
2022-11-25T01:20:43.572Z,8.33
2022-11-25T01:21:47.113Z,8.51
2022-11-25T01:22:52.601Z,8.19
2022-11-25T01:23:56.139Z,7.66
2022-11-25T01:24:59.580Z,8.72
2022-11-25T01:26:08.550Z,8.23
2022-11-25T01:27:12.066Z,7.78
2022-11-25T01:28:15.519Z,8.29
2022-11-25T01:29:19.398Z,8.04
2022-11-25T01:30:22.843Z,7.81
2022-11-25T01:31:29.082Z,7.81
2022-11-25T01:32:32.904Z,8.37
2022-11-25T01:33:37.008Z,7.98
2022-11-25T01:34:40.484Z,8.47
2022-11-25T01:35:43.927Z,7.98
2022-11-25T01:36:47.790Z,8.44
2022-11-25T01:37:51.326Z,8.50
2022-11-25T01:38:57.046Z,8.67
2022-11-25T01:40:00.700Z,8.91
2022-11-25T01:41:05.142Z,8.47
2022-11-25T01:42:08.741Z,9.24
2022-11-25T01:43:14.570Z,8.90
2022-11-25T01:44:22.323Z,8.64
2022-11-25T01:45:37.121Z,9.11
2022-11-25T01:46:49.815Z,8.72
2022-11-25T01:47:56.857Z,8.69
2022-11-25T01:49:03.544Z,8.23
2022-11-25T01:50:10.721Z,9.10
2022-11-25T01:51:39.074Z,8.66
2022-11-25T01:52:46.181Z,8.83
2022-11-25T01:53:51.521Z,9.23
2022-11-25T01:55:04.595Z,8.95
2022-11-25T01:56:08.150Z,9.02
2022-11-25T01:57:15.239Z,9.00
2022-11-25T01:58:25.058Z,9.49
2022-11-25T01:59:33.617Z,9.32
2022-11-25T02:00:38.164Z,8.52
2022-11-25T02:01:41.737Z,9.02
2022-11-25T02:02:47.592Z,9.24
2022-11-25T02:03:53.598Z,9.61
2022-11-25T02:04:58.041Z,9.43
2022-11-25T02:06:16.992Z,9.34
2022-11-25T02:07:24.074Z,8.31
2022-11-25T02:08:28.681Z,8.84
2022-11-25T02:09:33.558Z,8.90
2022-11-25T02:10:38.173Z,9.23
2022-11-25T02:11:44.505Z,8.56
2022-11-25T02:12:48.249Z,8.14
2022-11-25T02:13:52.181Z,9.03
2022-11-25T02:14:58.952Z,8.15
2022-11-25T02:16:02.464Z,9.09
2022-11-25T02:17:06.033Z,8.58
2022-11-25T02:18:09.737Z,8.86
2022-11-25T02:19:19.942Z,8.49
2022-11-25T02:20:24.682Z,8.06
2022-11-25T02:21:37.810Z,9.19
2022-11-25T02:22:53.933Z,9.11
2022-11-25T02:24:09.896Z,8.64
2022-11-25T02:25:20.202Z,8.72
2022-11-25T02:26:24.083Z,9.06
2022-11-25T02:27:27.885Z,8.54
2022-11-25T02:28:33.332Z,8.51
2022-11-25T02:29:39.966Z,9.12
2022-11-25T02:30:45.090Z,8.82
2022-11-25T02:31:50.948Z,8.95
2022-11-25T02:32:54.661Z,9.01
2022-11-25T02:33:58.274Z,8.71
2022-11-25T02:35:01.813Z,9.02
2022-11-25T02:36:08.727Z,9.04
2022-11-25T02:37:12.300Z,8.99
2022-11-25T02:38:22.427Z,8.63
2022-11-25T02:39:28.455Z,7.89
2022-11-25T02:40:36.667Z,8.36
2022-11-25T02:41:46.503Z,9.03
2022-11-25T02:42:51.178Z,8.24
2022-11-25T02:43:55.387Z,9.55
2022-11-25T02:44:58.975Z,8.71
2022-11-25T02:46:11.458Z,8.97
2022-11-25T02:47:15.215Z,8.78
2022-11-25T02:48:19.010Z,8.36
2022-11-25T02:49:23.548Z,9.40
2022-11-25T02:50:27.811Z,8.70
2022-11-25T02:51:32.132Z,8.58
2022-11-25T02:52:35.652Z,8.59
2022-11-25T02:53:40.030Z,8.73
2022-11-25T02:54:43.523Z,8.67
2022-11-25T02:55:47.174Z,8.55
2022-11-25T02:56:50.704Z,8.58
2022-11-25T02:57:54.150Z,8.61
2022-11-25T02:58:59.631Z,8.64
2022-11-25T03:00:04.818Z,9.04
2022-11-25T03:01:09.321Z,9.21
2022-11-25T03:02:12.946Z,8.66
2022-11-25T03:03:16.672Z,9.28
2022-11-25T03:04:21.937Z,8.59
2022-11-25T03:05:25.517Z,9.00
2022-11-25T03:06:29.983Z,8.71
2022-11-25T03:07:33.519Z,9.04
2022-11-25T03:08:37.809Z,8.78
2022-11-25T03:09:43.278Z,8.86
2022-11-25T03:10:48.034Z,8.72
2022-11-25T03:12:09.704Z,9.09
2022-11-25T03:13:13.428Z,9.65
2022-11-25T03:14:17.122Z,9.25
2022-11-25T03:15:20.896Z,8.99
2022-11-25T03:16:24.426Z,8.75
2022-11-25T03:17:28.292Z,8.99
2022-11-25T03:18:31.771Z,9.06
2022-11-25T03:19:35.434Z,8.93
2022-11-25T03:20:38.947Z,8.64
2022-11-25T03:21:42.397Z,7.81
2022-11-25T03:22:46.372Z,8.75
2022-11-25T03:23:49.880Z,8.89
2022-11-25T03:24:53.783Z,8.02
2022-11-25T03:25:57.349Z,8.75
2022-11-25T03:27:00.845Z,8.10
2022-11-25T03:28:05.104Z,8.40
2022-11-25T03:29:09.004Z,8.50
2022-11-25T03:30:24.539Z,8.69
2022-11-25T03:31:29.891Z,8.88
2022-11-25T03:32:33.659Z,8.39
2022-11-25T03:33:37.131Z,8.71
2022-11-25T03:34:42.190Z,9.06
2022-11-25T03:35:47.554Z,8.72
2022-11-25T03:36:51.367Z,8.47
2022-11-25T03:37:55.392Z,8.78
2022-11-25T03:38:58.910Z,9.43
2022-11-25T03:40:03.493Z,9.27
2022-11-25T03:41:07.079Z,8.62
2022-11-25T03:42:10.647Z,9.03
2022-11-25T03:43:14.136Z,8.61
2022-11-25T03:44:17.809Z,8.25
2022-11-25T03:45:21.396Z,9.38
2022-11-25T03:46:25.202Z,8.87
2022-11-25T03:47:29.087Z,9.21
2022-11-25T03:48:32.666Z,9.38
2022-11-25T03:49:36.354Z,9.72
2022-11-25T03:50:39.857Z,8.96
2022-11-25T03:51:43.575Z,9.52
2022-11-25T03:52:47.570Z,8.69
2022-11-25T03:53:51.198Z,8.80
2022-11-25T03:54:54.907Z,9.52
2022-11-25T03:56:00.318Z,9.14
2022-11-25T03:57:03.827Z,9.35
2022-11-25T03:58:09.110Z,9.05
2022-11-25T03:59:12.594Z,9.28
2022-11-25T04:00:16.147Z,9.71
2022-11-25T04:01:24.318Z,8.90
2022-11-25T04:02:27.910Z,9.61
2022-11-25T04:03:31.878Z,9.26
2022-11-25T04:04:36.138Z,9.09
2022-11-25T04:05:39.938Z,9.41
2022-11-25T04:06:43.591Z,9.94
2022-11-25T04:07:47.145Z,9.49
2022-11-25T04:08:51.253Z,9.47
2022-11-25T04:09:54.908Z,9.00
2022-11-25T04:11:00.260Z,10.31
2022-11-25T04:12:24.144Z,9.29
2022-11-25T04:13:32.262Z,9.64
2022-11-25T04:14:36.046Z,9.07
2022-11-25T04:15:44.818Z,9.31
2022-11-25T04:16:48.499Z,9.24
2022-11-25T04:17:52.020Z,9.69
2022-11-25T04:18:55.662Z,9.46
2022-11-25T04:19:59.844Z,9.54
2022-11-25T04:21:03.672Z,9.96
2022-11-25T04:22:07.734Z,9.05
2022-11-25T04:23:13.903Z,8.56
2022-11-25T04:24:19.509Z,9.29
2022-11-25T04:25:23.261Z,9.47
2022-11-25T04:26:26.852Z,9.29
2022-11-25T04:27:30.455Z,9.56
2022-11-25T04:28:33.914Z,9.77
2022-11-25T04:29:37.680Z,9.77
2022-11-25T04:30:41.507Z,8.42
2022-11-25T04:31:45.297Z,8.65
2022-11-25T04:32:48.768Z,9.03
2022-11-25T04:33:52.955Z,9.22
2022-11-25T04:34:57.689Z,8.94
2022-11-25T04:36:01.358Z,8.73
2022-11-25T04:37:05.128Z,8.75
2022-11-25T04:38:08.589Z,8.76
2022-11-25T04:39:12.188Z,9.22
2022-11-25T04:40:15.799Z,8.41
2022-11-25T04:41:21.089Z,9.08
2022-11-25T04:42:34.228Z,9.12
2022-11-25T04:43:39.474Z,8.48
2022-11-25T04:45:01.089Z,8.62
2022-11-25T04:46:55.666Z,8.69
2022-11-25T04:47:59.193Z,8.99
2022-11-25T04:49:02.908Z,7.91
2022-11-25T04:50:10.104Z,8.24
2022-11-25T04:51:15.492Z,8.87
2022-11-25T04:52:19.190Z,8.14
2022-11-25T04:53:22.691Z,8.27
2022-11-25T04:54:26.131Z,7.92
2022-11-25T04:55:29.776Z,8.18
2022-11-25T04:56:33.559Z,7.94
2022-11-25T04:57:38.539Z,8.05
2022-11-25T04:59:01.315Z,7.71
2022-11-25T05:00:06.287Z,7.85
2022-11-25T05:01:09.870Z,8.62
2022-11-25T05:02:25.547Z,7.92
2022-11-25T05:03:30.899Z,7.86
2022-11-25T05:04:34.770Z,6.94
2022-11-25T05:05:39.057Z,7.49
2022-11-25T05:06:42.640Z,6.67
2022-11-25T05:07:46.353Z,6.61
2022-11-25T05:08:50.358Z,7.11
2022-11-25T05:09:55.158Z,6.31
2022-11-25T05:11:00.488Z,7.55
2022-11-25T05:12:04.951Z,6.99
2022-11-25T05:13:08.438Z,7.16
2022-11-25T05:14:11.935Z,7.56
2022-11-25T05:15:15.771Z,7.64
2022-11-25T05:16:21.150Z,7.33
2022-11-25T05:17:28.403Z,6.76
2022-11-25T05:18:32.080Z,7.11
2022-11-25T05:19:35.594Z,7.71
2022-11-25T05:20:39.460Z,7.10
2022-11-25T05:21:43.770Z,6.88
2022-11-25T05:22:47.337Z,7.75
2022-11-25T05:23:56.074Z,6.72
2022-11-25T05:25:00.790Z,6.36
2022-11-25T05:26:04.871Z,7.81
2022-11-25T05:27:10.444Z,6.81
2022-11-25T05:28:13.922Z,6.55
2022-11-25T05:29:17.823Z,7.19
2022-11-25T05:30:21.481Z,7.52
2022-11-25T05:31:24.903Z,7.36
2022-11-25T05:32:29.791Z,8.48
2022-11-25T05:33:34.152Z,8.66
2022-11-25T05:34:39.117Z,8.08
2022-11-25T05:35:43.091Z,7.41
2022-11-25T05:36:46.805Z,7.76
2022-11-25T05:37:50.365Z,6.82
2022-11-25T05:38:55.621Z,7.75
2022-11-25T05:40:00.945Z,7.22
2022-11-25T05:41:07.456Z,6.97
2022-11-25T05:42:10.930Z,7.16
2022-11-25T05:43:14.493Z,7.67
2022-11-25T05:44:22.668Z,6.82
2022-11-25T05:45:23.663Z,7.13
2022-11-25T05:46:27.554Z,7.08
2022-11-25T05:47:31.894Z,7.39
2022-11-25T05:48:35.503Z,6.69
2022-11-25T05:49:39.103Z,7.11
2022-11-25T05:50:42.567Z,7.52
2022-11-25T05:51:50.594Z,7.33
2022-11-25T05:52:55.706Z,7.62
2022-11-25T05:53:59.544Z,6.84
2022-11-25T05:55:05.384Z,6.80
2022-11-25T05:56:10.348Z,7.24
2022-11-25T05:57:32.027Z,6.84
2022-11-25T05:58:39.943Z,6.84
2022-11-25T05:59:44.232Z,7.28
2022-11-25T06:00:49.699Z,7.39
2022-11-25T06:01:54.066Z,7.18
2022-11-25T06:02:57.724Z,6.95
2022-11-25T06:04:02.781Z,7.22
2022-11-25T06:05:06.638Z,7.94
2022-11-25T06:06:10.993Z,8.18
2022-11-25T06:07:15.090Z,8.12
2022-11-25T06:08:18.777Z,7.37
2022-11-25T06:09:23.329Z,7.66
2022-11-25T06:10:26.924Z,8.23
2022-11-25T06:11:30.382Z,8.82
2022-11-25T06:12:34.066Z,8.74
2022-11-25T06:13:38.314Z,8.99
2022-11-25T06:14:41.806Z,8.09
2022-11-25T06:15:45.812Z,9.24
2022-11-25T06:16:51.342Z,8.47
2022-11-25T06:17:56.696Z,8.63
2022-11-25T06:19:04.179Z,8.27
2022-11-25T06:20:09.043Z,8.14
2022-11-25T06:21:13.619Z,7.19
2022-11-25T06:22:17.185Z,8.16
2022-11-25T06:23:20.692Z,7.56
2022-11-25T06:24:24.169Z,8.51
2022-11-25T06:25:29.827Z,8.18
2022-11-25T06:26:33.580Z,7.87
2022-11-25T06:28:04.585Z,8.32
2022-11-25T06:28:42.793Z,7.95
2022-11-25T06:29:46.275Z,8.48
2022-11-25T06:30:49.920Z,7.95
2022-11-25T06:31:55.294Z,7.64
2022-11-25T06:33:09.117Z,7.69
2022-11-25T06:34:12.778Z,7.26
2022-11-25T06:35:16.433Z,8.07
2022-11-25T06:36:24.190Z,7.60
2022-11-25T06:37:27.493Z,7.09
2022-11-25T06:38:31.436Z,7.72
2022-11-25T06:39:34.929Z,7.59
2022-11-25T06:40:38.319Z,7.82
2022-11-25T06:41:41.683Z,7.66
2022-11-25T06:42:45.042Z,7.61
2022-11-25T06:43:48.427Z,7.34
2022-11-25T06:44:51.752Z,7.61
2022-11-25T06:45:55.544Z,7.58
2022-11-25T06:46:58.892Z,7.12
2022-11-25T06:48:02.221Z,8.04
2022-11-25T06:49:05.658Z,7.42
2022-11-25T06:50:09.418Z,7.59
2022-11-25T06:51:14.280Z,8.13
2022-11-25T06:52:17.779Z,7.59
2022-11-25T06:53:24.071Z,7.92
2022-11-25T06:54:26.341Z,8.21
2022-11-25T06:55:29.611Z,7.70
2022-11-25T06:56:32.957Z,7.23
2022-11-25T06:57:36.178Z,7.69
2022-11-25T06:58:40.614Z,7.56
2022-11-25T06:59:44.376Z,7.31
2022-11-25T07:00:48.036Z,7.78
2022-11-25T07:01:51.504Z,7.61
2022-11-25T07:02:54.885Z,7.87
2022-11-25T07:04:05.399Z,7.00
2022-11-25T07:05:08.974Z,7.79
2022-11-25T07:06:13.564Z,8.09
2022-11-25T07:07:16.881Z,7.29
2022-11-25T07:08:21.820Z,7.22
2022-11-25T07:09:24.984Z,7.55
2022-11-25T07:10:28.134Z,7.79
2022-11-25T07:11:36.384Z,7.92
2022-11-25T07:12:39.897Z,7.41
2022-11-25T07:13:43.717Z,6.83
2022-11-25T07:14:50.584Z,7.24
2022-11-25T07:15:53.731Z,7.55
2022-11-25T07:16:56.947Z,7.03
2022-11-25T07:18:00.073Z,6.78
2022-11-25T07:19:03.667Z,6.51
2022-11-25T07:20:07.946Z,6.83
2022-11-25T07:21:13.767Z,6.54
2022-11-25T07:22:16.895Z,6.33
2022-11-25T07:23:19.994Z,7.02
2022-11-25T07:24:23.300Z,6.16
2022-11-25T07:25:30.581Z,6.48
2022-11-25T07:26:33.812Z,6.68
2022-11-25T07:27:37.090Z,6.57
2022-11-25T07:28:40.904Z,6.47
2022-11-25T07:29:58.287Z,6.64
2022-11-25T07:31:54.508Z,6.74
2022-11-25T07:32:57.600Z,7.15
2022-11-25T07:34:12.729Z,6.87
2022-11-25T07:35:15.951Z,7.08
2022-11-25T07:36:19.553Z,7.12
2022-11-25T07:37:22.648Z,7.36
2022-11-25T07:38:27.645Z,6.99
2022-11-25T07:39:30.956Z,7.08
2022-11-25T07:40:34.135Z,7.36
2022-11-25T07:41:37.471Z,7.12
2022-11-25T07:42:40.741Z,7.09
2022-11-25T07:43:46.582Z,6.99
2022-11-25T07:44:50.951Z,7.36
2022-11-25T07:46:25.041Z,6.76
2022-11-25T07:47:24.863Z,7.47
2022-11-25T07:48:28.143Z,6.62
2022-11-25T07:49:31.516Z,7.62
2022-11-25T07:50:34.717Z,7.37
2022-11-25T07:51:44.334Z,7.78
2022-11-25T07:52:47.751Z,6.52
2022-11-25T07:53:51.363Z,6.89
2022-11-25T07:54:54.508Z,7.26
2022-11-25T07:56:02.454Z,7.26
2022-11-25T07:57:05.735Z,7.25
2022-11-25T07:58:08.948Z,6.74
2022-11-25T07:59:17.885Z,6.75
2022-11-25T08:00:22.231Z,7.35
2022-11-25T08:01:25.636Z,7.41
2022-11-25T08:02:28.918Z,7.22
2022-11-25T08:03:33.113Z,7.26
2022-11-25T08:04:36.923Z,7.08
2022-11-25T08:05:40.143Z,7.54
2022-11-25T08:06:45.072Z,7.17
2022-11-25T08:07:48.400Z,7.38
2022-11-25T08:08:55.328Z,7.12
2022-11-25T08:09:58.536Z,7.01
2022-11-25T08:11:01.669Z,7.53
2022-11-25T08:12:05.146Z,7.45
2022-11-25T08:13:08.326Z,7.36
2022-11-25T08:14:11.446Z,7.11
2022-11-25T08:15:14.710Z,7.67
2022-11-25T08:16:20.415Z,7.45
2022-11-25T08:17:23.673Z,6.76
2022-11-25T08:18:27.408Z,7.78
2022-11-25T08:19:31.686Z,7.06
2022-11-25T08:20:34.879Z,7.02
2022-11-25T08:21:38.037Z,7.60
2022-11-25T08:22:41.111Z,7.31
2022-11-25T08:23:47.103Z,7.08
2022-11-25T08:24:50.302Z,6.41
2022-11-25T08:25:53.422Z,7.77
2022-11-25T08:26:58.088Z,7.65
2022-11-25T08:28:01.496Z,7.21
2022-11-25T08:29:06.250Z,6.94
2022-11-25T08:30:10.039Z,7.10
2022-11-25T08:31:19.693Z,6.24
2022-11-25T08:32:22.914Z,7.27
2022-11-25T08:33:28.941Z,6.43
2022-11-25T08:34:32.223Z,6.57
2022-11-25T08:35:37.475Z,6.62
2022-11-25T08:36:45.152Z,7.19
2022-11-25T08:37:46.313Z,6.94
2022-11-25T08:38:51.615Z,6.96
2022-11-25T08:39:55.112Z,6.18
2022-11-25T08:40:58.977Z,6.25
2022-11-25T08:42:03.999Z,6.44
2022-11-25T08:43:07.156Z,6.73
2022-11-25T08:44:12.938Z,6.91
2022-11-25T08:45:16.029Z,6.68
2022-11-25T08:46:21.666Z,6.17
2022-11-25T08:47:25.244Z,6.01
2022-11-25T08:48:28.334Z,6.59
2022-11-25T08:49:34.973Z,6.16
2022-11-25T08:50:36.620Z,6.33
2022-11-25T08:51:40.138Z,6.19
2022-11-25T08:52:43.914Z,6.25
2022-11-25T08:53:47.536Z,6.03
2022-11-25T08:54:50.833Z,5.82
2022-11-25T08:55:54.007Z,5.52
2022-11-25T08:56:57.106Z,5.69
2022-11-25T08:58:00.416Z,5.74
2022-11-25T08:59:04.028Z,6.45
2022-11-25T09:00:08.849Z,6.39
2022-11-25T09:01:13.135Z,5.72
2022-11-25T09:02:17.520Z,5.95
2022-11-25T09:03:20.829Z,5.97
2022-11-25T09:04:24.151Z,6.20
2022-11-25T09:05:28.040Z,6.16
2022-11-25T09:06:31.578Z,6.39
2022-11-25T09:07:34.762Z,6.67
2022-11-25T09:08:40.310Z,8.77
2022-11-25T09:09:43.725Z,8.81
2022-11-25T09:10:47.308Z,10.25
2022-11-25T09:11:50.723Z,8.40
2022-11-25T09:12:53.986Z,8.89
2022-11-25T09:13:57.268Z,8.41
2022-11-25T09:15:00.748Z,6.85
2022-11-25T09:16:04.592Z,6.26
2022-11-25T09:17:10.030Z,5.95
2022-11-25T09:18:14.987Z,6.61
2022-11-25T09:19:20.139Z,6.07
2022-11-25T09:20:23.439Z,6.10
2022-11-25T09:21:26.564Z,6.56
2022-11-25T09:22:29.802Z,5.66
2022-11-25T09:23:33.139Z,6.35
2022-11-25T09:24:36.321Z,6.09
2022-11-25T09:25:39.575Z,5.97
2022-11-25T09:26:44.469Z,5.78
2022-11-25T09:27:47.880Z,6.16
2022-11-25T09:28:51.253Z,6.04
2022-11-25T09:29:54.469Z,6.45
2022-11-25T09:32:15.782Z,6.31
2022-11-25T09:33:19.486Z,6.53
2022-11-25T09:34:22.696Z,5.95
2022-11-25T09:35:26.208Z,6.18
2022-11-25T09:36:29.379Z,5.87
2022-11-25T09:37:32.520Z,6.24
2022-11-25T09:38:41.609Z,6.11
2022-11-25T09:39:41.582Z,6.52
2022-11-25T09:41:08.955Z,6.92
2022-11-25T09:42:59.538Z,6.29
2022-11-25T09:44:24.399Z,7.09
2022-11-25T09:45:52.298Z,6.29
2022-11-25T09:46:59.127Z,6.21
2022-11-25T09:48:11.985Z,6.64
2022-11-25T09:49:39.317Z,6.46
2022-11-25T09:50:49.304Z,5.96
2022-11-25T09:52:13.015Z,5.78
2022-11-25T09:53:22.685Z,6.24
2022-11-25T09:54:29.524Z,6.11
2022-11-25T09:55:37.314Z,6.04
2022-11-25T09:56:59.228Z,5.43
2022-11-25T09:58:18.080Z,6.16
2022-11-25T09:59:24.732Z,5.73
2022-11-25T10:00:31.539Z,6.26
2022-11-25T10:01:38.187Z,6.12
2022-11-25T10:02:44.753Z,6.49
2022-11-25T10:03:51.488Z,6.72
2022-11-25T10:05:09.994Z,6.69
2022-11-25T10:06:29.103Z,5.82
2022-11-25T10:07:35.952Z,6.38
2022-11-25T10:08:45.712Z,6.11
2022-11-25T10:09:48.839Z,6.52
2022-11-25T10:10:55.579Z,5.54
2022-11-25T10:12:02.252Z,6.06
2022-11-25T10:13:07.741Z,5.92
2022-11-25T10:14:20.307Z,5.91
2022-11-25T10:15:27.070Z,5.93
2022-11-25T10:16:37.013Z,6.04
2022-11-25T10:17:43.835Z,6.21
2022-11-25T10:18:50.515Z,5.70
2022-11-25T10:20:15.506Z,6.00
2022-11-25T10:21:18.677Z,5.53
2022-11-25T10:22:40.652Z,5.84
2022-11-25T10:23:43.960Z,5.49
2022-11-25T10:24:48.058Z,5.71
2022-11-25T10:25:54.824Z,5.71
2022-11-25T10:27:01.513Z,6.37
2022-11-25T10:28:08.367Z,5.97
2022-11-25T10:29:17.863Z,6.11
2022-11-25T10:30:36.813Z,5.76
2022-11-25T10:31:42.986Z,6.11
2022-11-25T10:37:52.212Z,4.96
2022-11-25T10:38:59.051Z,5.86
2022-11-25T10:40:02.350Z,5.47
2022-11-25T10:41:05.776Z,5.31
2022-11-25T10:42:21.387Z,5.14
2022-11-25T10:43:28.714Z,5.21
2022-11-25T10:44:32.014Z,5.51
2022-11-25T10:45:40.009Z,5.11
2022-11-25T10:47:14.795Z,5.52
2022-11-25T10:48:20.673Z,4.85
2022-11-25T10:49:27.381Z,4.91
2022-11-25T10:50:56.777Z,5.03
2022-11-25T10:52:00.091Z,5.27
2022-11-25T10:53:09.763Z,5.08
2022-11-25T10:54:27.891Z,4.93
2022-11-25T10:55:32.021Z,5.53
2022-11-25T10:56:53.257Z,5.24
2022-11-25T10:57:56.537Z,5.04
2022-11-25T10:59:03.278Z,5.26
2022-11-25T11:00:15.673Z,5.37
2022-11-25T11:01:17.899Z,4.66
2022-11-25T11:02:30.610Z,5.62
2022-11-25T11:03:34.744Z,5.23
2022-11-25T11:04:56.446Z,5.39
2022-11-25T11:05:59.702Z,5.16
2022-11-25T11:07:08.612Z,5.13
2022-11-25T11:08:21.258Z,5.32
2022-11-25T11:09:33.958Z,4.89
2022-11-25T11:10:37.400Z,5.05
2022-11-25T11:11:48.764Z,5.06
2022-11-25T11:13:07.597Z,4.86
2022-11-25T11:14:13.793Z,5.11
2022-11-25T11:16:40.330Z,5.19
2022-11-25T11:17:43.672Z,5.42
2022-11-25T11:18:46.880Z,5.50
2022-11-25T11:20:02.397Z,5.07
2022-11-25T11:21:08.289Z,5.39
2022-11-25T11:22:17.247Z,5.98
2022-11-25T11:23:20.853Z,5.27
2022-11-25T11:24:31.584Z,5.16
2022-11-25T11:25:37.236Z,6.13
2022-11-25T11:26:40.431Z,4.56
2022-11-25T11:27:43.505Z,5.09
2022-11-25T11:28:46.884Z,4.24
2022-11-25T11:31:19.084Z,5.17
2022-11-25T11:32:28.072Z,4.87
2022-11-25T11:33:49.964Z,4.84
2022-11-25T11:35:09.083Z,5.03
2022-11-25T11:36:24.886Z,4.80
2022-11-25T11:37:41.107Z,4.28
2022-11-25T11:39:05.647Z,4.86
2022-11-25T11:40:18.904Z,4.75
2022-11-25T11:41:28.531Z,4.08
2022-11-25T11:42:40.983Z,5.28
2022-11-25T11:43:55.378Z,4.74
2022-11-25T11:45:26.275Z,4.74
2022-11-25T11:46:55.495Z,4.75
2022-11-25T11:48:13.857Z,4.56
2022-11-25T11:49:30.882Z,4.43
2022-11-25T11:50:37.727Z,4.95
2022-11-25T11:52:00.833Z,4.87
2022-11-25T11:53:28.463Z,4.71
2022-11-25T11:54:51.496Z,5.32
2022-11-25T11:56:34.793Z,4.62
2022-11-25T11:57:12.574Z,5.11
2022-11-25T11:58:43.352Z,4.62
2022-11-25T11:59:49.307Z,4.84
2022-11-25T12:00:59.039Z,4.57
2022-11-25T12:02:33.223Z,4.96
2022-11-25T12:03:43.631Z,4.73
2022-11-25T12:05:11.603Z,4.76
2022-11-25T12:06:18.819Z,4.65
2022-11-25T12:07:40.846Z,4.43
2022-11-25T12:08:50.556Z,4.57
2022-11-25T12:10:06.009Z,4.57
2022-11-25T12:11:18.385Z,4.66
2022-11-25T12:12:24.247Z,4.82
2022-11-25T12:13:55.353Z,4.14
2022-11-25T12:15:03.339Z,4.01
2022-11-25T12:16:15.990Z,4.19
2022-11-25T12:17:22.702Z,4.34
2022-11-25T12:19:05.063Z,4.28
2022-11-25T12:20:20.512Z,5.55
2022-11-25T12:21:44.894Z,4.33
2022-11-25T12:23:03.733Z,4.75
2022-11-25T12:24:10.503Z,4.36
2022-11-25T12:25:18.561Z,4.82
2022-11-25T12:26:25.226Z,4.26
2022-11-25T12:27:34.888Z,4.52
2022-11-25T12:28:59.547Z,4.54
2022-11-25T12:31:26.934Z,4.39
2022-11-25T12:32:36.576Z,4.44
2022-11-25T12:33:55.287Z,3.94
2022-11-25T12:35:13.839Z,4.58
2022-11-25T12:36:20.416Z,4.29
2022-11-25T12:37:36.304Z,5.33
2022-11-25T12:38:57.605Z,4.85
2022-11-25T12:40:22.536Z,5.03
2022-11-25T12:41:48.373Z,4.94
2022-11-25T12:42:54.288Z,5.09
2022-11-25T12:44:06.850Z,5.23
2022-11-25T12:45:22.280Z,4.44
2022-11-25T12:46:46.919Z,4.49
2022-11-25T12:47:51.053Z,4.04
2022-11-25T12:48:56.399Z,5.19
2022-11-25T12:49:59.739Z,4.23
2022-11-25T12:51:09.255Z,4.87
2022-11-25T12:52:49.129Z,4.83
2022-11-25T12:54:18.728Z,4.95
2022-11-25T12:55:24.229Z,4.53
2022-11-25T12:56:49.154Z,4.35
2022-11-25T12:58:24.574Z,4.10
2022-11-25T12:59:34.352Z,4.17
2022-11-25T13:00:45.942Z,4.58
2022-11-25T13:01:59.619Z,4.40
2022-11-25T13:03:24.021Z,4.57
2022-11-25T13:04:54.459Z,4.45
2022-11-25T13:06:10.170Z,3.89
2022-11-25T13:07:27.903Z,3.82
2022-11-25T13:08:37.222Z,4.38
2022-11-25T13:38:51.590Z,5.56
2022-11-25T13:40:14.815Z,5.63
2022-11-25T13:41:24.292Z,6.41
2022-11-25T13:42:27.885Z,6.86
2022-11-25T13:43:31.589Z,6.87
2022-11-25T13:44:37.404Z,6.69
2022-11-25T13:45:43.346Z,6.47
2022-11-25T13:46:57.956Z,6.52
2022-11-25T13:48:25.726Z,6.42
2022-11-25T13:49:32.370Z,5.68
2022-11-25T13:50:55.311Z,6.41
2022-11-25T13:51:44.577Z,5.81
2022-11-25T13:53:06.440Z,5.68
2022-11-25T13:54:13.160Z,5.57
2022-11-25T13:55:19.899Z,5.59
2022-11-25T13:56:32.217Z,5.50
2022-11-25T13:57:38.946Z,4.95
2022-11-25T13:58:45.632Z,4.98
2022-11-25T14:00:00.243Z,5.29
2022-11-25T14:01:12.660Z,4.94
2022-11-25T14:02:31.645Z,5.18
2022-11-25T14:03:46.441Z,5.36
2022-11-25T14:05:15.861Z,4.81
2022-11-25T14:06:48.577Z,5.39
2022-11-25T14:08:22.337Z,5.91
2022-11-25T14:09:47.367Z,6.18
2022-11-25T14:11:00.491Z,5.53
2022-11-25T14:12:07.137Z,6.22
2022-11-25T14:13:47.183Z,6.34
2022-11-25T14:15:06.137Z,5.79
2022-11-25T14:16:35.480Z,6.39
2022-11-25T14:17:58.703Z,6.48
2022-11-25T14:20:37.866Z,6.79
2022-11-25T14:22:03.755Z,6.37
2022-11-25T14:23:22.592Z,7.31
2022-11-25T14:24:29.053Z,7.19
2022-11-25T14:25:53.686Z,7.86
2022-11-25T14:26:58.838Z,7.28
2022-11-25T14:28:23.189Z,6.82
2022-11-25T14:29:36.247Z,7.26
2022-11-25T14:30:53.707Z,7.84
2022-11-25T14:32:03.664Z,7.36
2022-11-25T14:33:09.915Z,6.83
2022-11-25T14:34:19.427Z,7.06
2022-11-25T14:35:44.854Z,6.58
2022-11-25T14:36:49.187Z,6.91
2022-11-25T14:38:05.156Z,7.72
2022-11-25T14:39:27.232Z,7.36
2022-11-25T14:40:42.840Z,7.73
2022-11-25T14:42:02.146Z,7.29
2022-11-25T14:43:09.204Z,6.86
2022-11-25T14:44:16.122Z,8.23
2022-11-25T14:45:25.737Z,7.59
2022-11-25T14:46:29.094Z,7.88
2022-11-25T14:47:37.416Z,7.96
2022-11-25T14:48:38.097Z,8.27
2022-11-25T14:49:51.645Z,7.61
2022-11-25T14:51:01.831Z,7.62
2022-11-25T14:52:05.016Z,8.04
2022-11-25T14:53:10.880Z,7.79
2022-11-25T14:54:14.596Z,8.02
2022-11-25T14:55:29.514Z,7.68
2022-11-25T14:56:35.251Z,7.26
2022-11-25T14:57:42.455Z,7.88
2022-11-25T14:58:48.131Z,8.22
2022-11-25T14:59:52.682Z,8.13
2022-11-25T15:01:07.845Z,7.93
2022-11-25T15:02:34.492Z,7.66
2022-11-25T15:03:37.690Z,7.24
2022-11-25T15:04:41.459Z,7.03
2022-11-25T15:05:44.580Z,7.11
2022-11-25T15:06:51.389Z,6.53
2022-11-25T15:08:02.018Z,7.02
2022-11-25T15:09:26.411Z,7.47
2022-11-25T15:10:33.246Z,7.59
2022-11-25T15:11:36.553Z,7.68
2022-11-25T15:12:45.693Z,7.14
2022-11-25T15:13:50.868Z,8.06
2022-11-25T15:14:56.947Z,7.52
2022-11-25T15:16:09.728Z,7.62
2022-11-25T15:17:31.472Z,7.51
2022-11-25T15:18:35.311Z,8.09
2022-11-25T15:19:38.969Z,7.94
2022-11-25T15:20:51.744Z,8.31
2022-11-25T15:23:10.039Z,7.27
2022-11-25T15:24:25.764Z,7.32
2022-11-25T15:25:28.865Z,7.68
2022-11-25T15:26:35.800Z,6.87
2022-11-25T15:27:45.300Z,7.29
2022-11-25T15:29:03.303Z,8.17
2022-11-25T15:31:32.892Z,8.26
2022-11-25T15:32:38.273Z,7.10
2022-11-25T15:33:42.296Z,6.74
2022-11-25T15:34:47.009Z,7.68
2022-11-25T15:35:50.145Z,7.25
2022-11-25T15:36:54.702Z,7.47
2022-11-25T15:37:57.911Z,6.92
2022-11-25T15:39:19.105Z,7.06
2022-11-25T15:40:37.741Z,6.66
2022-11-25T15:41:44.047Z,7.23
2022-11-25T15:42:47.670Z,6.37
2022-11-25T15:43:53.843Z,6.86
2022-11-25T15:45:07.176Z,7.31
2022-11-25T15:46:09.124Z,6.93